sensor_id;sensor_type;location;lat;lon;timestamp;temperature;humidity
72646;DHT22;60687;53.876;10.674;2023-02-22T00:02:35;8.00;99.90
72646;DHT22;60687;53.876;10.674;2023-02-22T00:12:42;8.00;99.90
72646;DHT22;60687;53.876;10.674;2023-02-22T00:23:16;8.00;99.90
72646;DHT22;60687;53.876;10.674;2023-02-22T00:57:51;7.90;99.90
72646;DHT22;60687;53.876;10.674;2023-02-22T02:17:24;7.90;99.90
72646;DHT22;60687;53.876;10.674;2023-02-22T02:39:22;7.80;99.90
72646;DHT22;60687;53.876;10.674;2023-02-22T02:50:02;7.80;99.90
72646;DHT22;60687;53.876;10.674;2023-02-22T03:11:16;7.70;99.90
72646;DHT22;60687;53.876;10.674;2023-02-22T03:21:30;7.70;99.90
72646;DHT22;60687;53.876;10.674;2023-02-22T03:31:38;7.70;99.90
72646;DHT22;60687;53.876;10.674;2023-02-22T03:41:47;7.70;99.90
72646;DHT22;60687;53.876;10.674;2023-02-22T03:51:55;7.70;99.90
72646;DHT22;60687;53.876;10.674;2023-02-22T04:02:00;7.60;99.90
72646;DHT22;60687;53.876;10.674;2023-02-22T04:12:05;7.60;99.90
72646;DHT22;60687;53.876;10.674;2023-02-22T04:22:21;7.60;99.90
72646;DHT22;60687;53.876;10.674;2023-02-22T04:32:32;7.60;99.90
72646;DHT22;60687;53.876;10.674;2023-02-22T04:42:41;7.50;99.90
72646;DHT22;60687;53.876;10.674;2023-02-22T04:52:53;7.50;99.90
72646;DHT22;60687;53.876;10.674;2023-02-22T05:02:57;7.50;99.90
72646;DHT22;60687;53.876;10.674;2023-02-22T05:13:02;7.50;99.90
72646;DHT22;60687;53.876;10.674;2023-02-22T05:23:06;7.50;99.90
72646;DHT22;60687;53.876;10.674;2023-02-22T05:33:20;7.50;99.90
72646;DHT22;60687;53.876;10.674;2023-02-22T05:43:48;7.40;99.90
72646;DHT22;60687;53.876;10.674;2023-02-22T05:54:03;7.40;99.90
72646;DHT22;60687;53.876;10.674;2023-02-22T06:04:19;7.40;99.90
72646;DHT22;60687;53.876;10.674;2023-02-22T06:14:25;7.40;99.90
72646;DHT22;60687;53.876;10.674;2023-02-22T06:24:47;7.40;99.90
72646;DHT22;60687;53.876;10.674;2023-02-22T06:35:13;7.40;99.90
72646;DHT22;60687;53.876;10.674;2023-02-22T06:45:21;7.40;99.90
72646;DHT22;60687;53.876;10.674;2023-02-22T06:55:49;7.40;99.90
72646;DHT22;60687;53.876;10.674;2023-02-22T07:06:06;7.40;99.90
72646;DHT22;60687;53.876;10.674;2023-02-22T07:16:12;7.40;99.90
72646;DHT22;60687;53.876;10.674;2023-02-22T07:26:18;7.40;99.90
72646;DHT22;60687;53.876;10.674;2023-02-22T07:36:25;7.40;99.90
72646;DHT22;60687;53.876;10.674;2023-02-22T07:46:28;7.40;99.90
72646;DHT22;60687;53.876;10.674;2023-02-22T07:56:33;7.40;99.90
72646;DHT22;60687;53.876;10.674;2023-02-22T08:06:35;7.50;99.90
72646;DHT22;60687;53.876;10.674;2023-02-22T08:16:38;7.50;99.90
72646;DHT22;60687;53.876;10.674;2023-02-22T08:26:46;7.50;99.90
72646;DHT22;60687;53.876;10.674;2023-02-22T08:37:18;7.60;99.90
72646;DHT22;60687;53.876;10.674;2023-02-22T08:48:06;7.70;99.90
72646;DHT22;60687;53.876;10.674;2023-02-22T08:59:39;7.70;99.90
72646;DHT22;60687;53.876;10.674;2023-02-22T09:21:24;7.90;99.90
72646;DHT22;60687;53.876;10.674;2023-02-22T09:42:30;8.10;99.90
72646;DHT22;60687;53.876;10.674;2023-02-22T09:52:48;8.30;99.90
72646;DHT22;60687;53.876;10.674;2023-02-22T10:03:32;8.30;99.90
72646;DHT22;60687;53.876;10.674;2023-02-22T10:14:01;8.50;99.90
72646;DHT22;60687;53.876;10.674;2023-02-22T10:24:59;8.70;99.90
72646;DHT22;60687;53.876;10.674;2023-02-22T10:35:12;8.90;99.90
72646;DHT22;60687;53.876;10.674;2023-02-22T11:31:08;9.60;99.90
72646;DHT22;60687;53.876;10.674;2023-02-22T11:53:28;9.80;99.90
72646;DHT22;60687;53.876;10.674;2023-02-22T12:15:41;10.00;99.90
72646;DHT22;60687;53.876;10.674;2023-02-22T12:25:55;10.00;99.90
72646;DHT22;60687;53.876;10.674;2023-02-22T12:36:37;10.10;99.90
72646;DHT22;60687;53.876;10.674;2023-02-22T12:47:13;10.20;99.90
72646;DHT22;60687;53.876;10.674;2023-02-22T12:57:46;10.20;99.90
72646;DHT22;60687;53.876;10.674;2023-02-22T13:08:04;10.30;99.90
72646;DHT22;60687;53.876;10.674;2023-02-22T13:18:19;10.30;99.90
72646;DHT22;60687;53.876;10.674;2023-02-22T13:29:03;10.20;99.90
72646;DHT22;60687;53.876;10.674;2023-02-22T13:39:46;10.30;99.90
72646;DHT22;60687;53.876;10.674;2023-02-22T14:02:30;10.30;99.90
72646;DHT22;60687;53.876;10.674;2023-02-22T14:12:47;10.30;99.90
72646;DHT22;60687;53.876;10.674;2023-02-22T14:46:37;10.40;99.90
72646;DHT22;60687;53.876;10.674;2023-02-22T14:56:54;10.30;99.90
72646;DHT22;60687;53.876;10.674;2023-02-22T15:17:57;10.30;99.90
72646;DHT22;60687;53.876;10.674;2023-02-22T15:51:03;10.20;99.90
72646;DHT22;60687;53.876;10.674;2023-02-22T16:01:31;10.10;99.90
72646;DHT22;60687;53.876;10.674;2023-02-22T16:22:56;10.10;99.90
72646;DHT22;60687;53.876;10.674;2023-02-22T16:33:07;10.10;99.90
72646;DHT22;60687;53.876;10.674;2023-02-22T16:43:22;10.00;99.90
72646;DHT22;60687;53.876;10.674;2023-02-22T16:54:42;9.90;99.90
72646;DHT22;60687;53.876;10.674;2023-02-22T17:05:26;9.90;99.90
72646;DHT22;60687;53.876;10.674;2023-02-22T17:15:30;9.80;99.90
72646;DHT22;60687;53.876;10.674;2023-02-22T17:25:57;9.70;99.90
72646;DHT22;60687;53.876;10.674;2023-02-22T17:36:16;9.70;99.90
72646;DHT22;60687;53.876;10.674;2023-02-22T18:09:32;9.60;99.90
72646;DHT22;60687;53.876;10.674;2023-02-22T18:19:42;9.50;99.90
72646;DHT22;60687;53.876;10.674;2023-02-22T18:43:05;9.50;99.90
72646;DHT22;60687;53.876;10.674;2023-02-22T19:16:31;9.40;99.90
72646;DHT22;60687;53.876;10.674;2023-02-22T19:27:08;9.30;99.90
72646;DHT22;60687;53.876;10.674;2023-02-22T19:38:20;9.30;99.90
72646;DHT22;60687;53.876;10.674;2023-02-22T19:48:25;9.20;99.90
72646;DHT22;60687;53.876;10.674;2023-02-22T19:58:33;9.20;99.90
72646;DHT22;60687;53.876;10.674;2023-02-22T22:02:25;8.50;99.90
72646;DHT22;60687;53.876;10.674;2023-02-22T22:12:56;8.40;99.90
